Thomsen River, Northwest Territories

7:30 AM MDT on August 30, 2016 (GMT -0600)
Chesterfield Inlet | | Change Station

Elev 36 ft 63.33 °N, 90.72 °W | Updated 30 minutes ago

Overcast
Overcast
46 °F
Feels Like 44 °F
N
6
Wind Variable Wind from North

Today
High -- | Low -- °F
--% Chance of Precip.
Yesterday
High -- | Low -- °F
Precip. -- in
Pressure 30.24 in
Visibility 15.0 miles
Clouds Scattered Clouds 1000 ft
Overcast 7000 ft
Windchill 44 °F
Dew Point 45 °F
Humidity 93%
Rainfall 0.00 in
Snow Depth Not available.
5:42 AM 10:10 PM
Waning Crescent, 4% visible
METAR CYCS 301300Z 36005KT 15SM SCT010 OVC070 08/07 A3023 RMK SC4AC4 SLP239
Pressure 30.24 in
Visibility 15.0 miles
Clouds Scattered Clouds 1000 ft
Overcast 7000 ft
Windchill 44 °F
Dew Point 45 °F
Humidity 93%
Rainfall 0.00 in
Snow Depth Not available.
5:42 AM 10:10 PM
Waning Crescent, 4% visible
METAR CYCS 301300Z 36005KT 15SM SCT010 OVC070 08/07 A3023 RMK SC4AC4 SLP239

10-Day Weather Forecast

No radar image for this location.
×

Almanac

Astronomy

Aug. 30, 2016 Rise Set
Actual Time
Civil Twilight
Nautical Twilight
Astronomical Twilight
Moon
Length of Visible Light
Length of Day
Tomorrow will be .
, % of the Moon is Illuminated

Today's Extremes

Country Highs Country Lows

Community

WunderPhotos

Upload Photos

1,935,831 photos uploaded!

WunderBlog® & News

Nearby

Air Quality

  Air Quality AQ Index Pollutant
Not available.

Snow Depth

Station Depth Elevation

Earthquake Activity

City Distance Mag. Time & Date
Minimum magnitude displayed is 2.5.

Coastal Water Temperatures

Place Temperature

Stations

Nearby Weather Stations

Station Location Temp. Windchill Dew Point Humidity Wind Precip. Elev Updated Type
                   

Watches & Warnings

There are currently no watches in effect.